Wetterdaten: aktuell Mittwoch, 12.06.2024 20:55
Datum Zeit Temp. A. Temp. A. min Feuchte A. Luftdruck Regen Wind Richtung Richtung Sonnenschein Solar Taupunkt Windchill Windben
12.06.2024 20:55 18,6 C 18,6 C 45 % 1015,4 hPa 0,0 l/m 0,0 km/h (0 Bft) SO 137 0 min 0 W/m 6,4 C 18,6 C 1,6 km/h (1 Bft)
12.06.2024 20:50 18,6 C 18,6 C 45 % 1015,4 hPa 0,0 l/m 0,0 km/h (0 Bft) SO 138 0 min 0 W/m 6,4 C 18,6 C 1,6 km/h (1 Bft)
12.06.2024 20:45 18,6 C 18,6 C 45 % 1015,4 hPa 0,0 l/m 0,0 km/h (0 Bft) SO 136 0 min 0 W/m 6,4 C 18,6 C 0,0 km/h (0 Bft)
12.06.2024 20:40 18,7 C 18,7 C 46 % 1015,4 hPa 0,0 l/m 0,0 km/h (0 Bft) S-SO 151 0 min 0 W/m 6,8 C 18,7 C 0,0 km/h (0 Bft)
12.06.2024 20:35 18,7 C 18,7 C 46 % 1015,3 hPa 0,0 l/m 0,0 km/h (0 Bft) S-SO 154 0 min 0 W/m 6,8 C 18,7 C 0,0 km/h (0 Bft)
12.06.2024 20:30 18,8 C 18,7 C 47 % 1015,3 hPa 0,0 l/m 0,0 km/h (0 Bft) S-SO 165 0 min 0 W/m 7,2 C 18,8 C 0,0 km/h (0 Bft)
12.06.2024 20:25 18,8 C 18,8 C 46 % 1015,3 hPa 0,0 l/m 0,0 km/h (0 Bft) S-SW 204 0 min 0 W/m 6,9 C 18,8 C 0,0 km/h (0 Bft)
12.06.2024 20:20 18,8 C 18,8 C 46 % 1015,3 hPa 0,0 l/m 0,0 km/h (0 Bft) SW 217 0 min 0 W/m 6,9 C 18,8 C 0,0 km/h (0 Bft)
12.06.2024 20:18 18,8 C 18,8 C 45 % 1015,2 hPa 0,0 l/m 0,0 km/h (0 Bft) SW 218 0 min 0 W/m 6,6 C 18,8 C 0,0 km/h (0 Bft)
12.06.2024 20:10 18,9 C 18,8 C 45 % 1015,2 hPa 0,0 l/m 0,0 km/h (0 Bft) S-SW 209 0 min 0 W/m 6,7 C 18,9 C 0,0 km/h (0 Bft)
12.06.2024 20:05 18,8 C 18,8 C 45 % 1015,2 hPa 0,0 l/m 0,0 km/h (0 Bft) S-SW 198 0 min 0 W/m 6,6 C 18,8 C 0,0 km/h (0 Bft)
12.06.2024 20:00 18,9 C 18,9 C 44 % 1015,2 hPa 0,0 l/m 0,0 km/h (0 Bft) O-SO 120 0 min 0 W/m 6,4 C 18,9 C 0,0 km/h (0 Bft)
12.06.2024 19:58 18,9 C 18,9 C 44 % 1015,2 hPa 0,0 l/m 0,0 km/h (0 Bft) O-SO 119 0 min 0 W/m 6,4 C 18,9 C 0,0 km/h (0 Bft)
12.06.2024 19:50 19,1 C 19,0 C 44 % 1015,2 hPa 0,0 l/m 0,1 km/h (0 Bft) O-SO 112 0 min 0 W/m 6,6 C 19,1 C 1,6 km/h (1 Bft)
12.06.2024 19:45 19,0 C 19,0 C 46 % 1015,1 hPa 0,0 l/m 1,6 km/h (1 Bft) SO 133 0 min 0 W/m 7,1 C 19,0 C 3,2 km/h (1 Bft)
12.06.2024 19:40 19,1 C 19,1 C 45 % 1015,2 hPa 0,0 l/m 0,5 km/h (0 Bft) SO 136 0 min 0 W/m 6,9 C 19,1 C 6,4 km/h (2 Bft)
12.06.2024 19:37 19,1 C 19,0 C 44 % 1015,1 hPa 0,0 l/m 0,1 km/h (0 Bft) S-SW 192 0 min 0 W/m 6,6 C 19,1 C 3,2 km/h (1 Bft)
12.06.2024 19:31 19,0 C 18,9 C 44 % 1015,2 hPa 0,0 l/m 0,2 km/h (0 Bft) SO 127 0 min 0 W/m 6,5 C 19,0 C 3,2 km/h (1 Bft)
12.06.2024 19:25 19,0 C 19,0 C 43 % 1015,1 hPa 0,0 l/m 0,1 km/h (0 Bft) O-SO 122 0 min 0 W/m 6,1 C 19,0 C 3,2 km/h (1 Bft)
12.06.2024 19:20 19,1 C 19,1 C 43 % 1015,1 hPa 0,0 l/m 0,4 km/h (0 Bft) SO 143 0 min 0 W/m 6,2 C 19,1 C 3,2 km/h (1 Bft)
12.06.2024 19:15 19,2 C 19,2 C 43 % 1015,1 hPa 0,0 l/m 0,6 km/h (0 Bft) SO 144 0 min 0 W/m 6,3 C 19,2 C 1,6 km/h (1 Bft)
12.06.2024 19:13 19,2 C 19,2 C 43 % 1015,1 hPa 0,0 l/m 0,0 km/h (0 Bft) O-SO 115 0 min 0 W/m 6,3 C 19,2 C 1,6 km/h (1 Bft)
12.06.2024 19:05 19,4 C 19,4 C 42 % 1015,1 hPa 0,0 l/m 0,0 km/h (0 Bft) S-SO 160 0 min 0 W/m 6,2 C 19,4 C 0,0 km/h (0 Bft)
12.06.2024 19:00 19,5 C 19,5 C 44 % 1015,0 hPa 0,0 l/m 0,7 km/h (0 Bft) NO 50 0 min 0 W/m 6,9 C 19,5 C 3,2 km/h (1 Bft)
12.06.2024 18:55 19,7 C 19,6 C 43 % 1015,1 hPa 0,0 l/m 0,5 km/h (0 Bft) SO 126 0 min 0 W/m 6,8 C 19,7 C 3,2 km/h (1 Bft)
12.06.2024 18:53 19,7 C 19,7 C 42 % 1015,0 hPa 0,0 l/m 0,6 km/h (0 Bft) S-SO 150 0 min 0 W/m 6,4 C 19,7 C 4,8 km/h (1 Bft)
12.06.2024 18:45 19,7 C 19,6 C 43 % 1015,0 hPa 0,0 l/m 1,0 km/h (0 Bft) SO 146 0 min 0 W/m 6,8 C 19,7 C 6,4 km/h (2 Bft)
12.06.2024 18:40 19,6 C 19,5 C 41 % 1014,9 hPa 0,0 l/m 1,0 km/h (0 Bft) SO 126 0 min 0 W/m 6,0 C 19,6 C 4,8 km/h (1 Bft)
12.06.2024 18:35 19,5 C 19,4 C 41 % 1015,0 hPa 0,0 l/m 1,9 km/h (1 Bft) S-SO 148 0 min 0 W/m 5,9 C 19,5 C 3,2 km/h (1 Bft)
12.06.2024 18:33 19,4 C 19,4 C 41 % 1015,0 hPa 0,0 l/m 0,1 km/h (0 Bft) S-SO 167 0 min 0 W/m 5,8 C 19,4 C 1,6 km/h (1 Bft)
12.06.2024 18:25 19,6 C 19,6 C 41 % 1015,0 hPa 0,0 l/m 0,4 km/h (0 Bft) S-SO 150 0 min 0 W/m 6,0 C 19,6 C 3,2 km/h (1 Bft)
12.06.2024 18:20 19,6 C 19,6 C 41 % 1015,1 hPa 0,0 l/m 1,6 km/h (1 Bft) O-SO 107 0 min 0 W/m 6,0 C 19,6 C 3,2 km/h (1 Bft)
12.06.2024 18:15 19,7 C 19,7 C 41 % 1015,2 hPa 0,0 l/m 1,6 km/h (1 Bft) SO 136 0 min 0 W/m 6,1 C 19,7 C 4,8 km/h (1 Bft)
12.06.2024 18:13 19,7 C 19,6 C 40 % 1015,1 hPa 0,0 l/m 0,0 km/h (0 Bft) S-SO 158 0 min 0 W/m 5,7 C 19,7 C 1,6 km/h (1 Bft)
12.06.2024 18:05 19,6 C 19,4 C 40 % 1015,1 hPa 0,0 l/m 0,5 km/h (0 Bft) S 180 0 min 0 W/m 5,6 C 19,6 C 3,2 km/h (1 Bft)
12.06.2024 18:00 19,5 C 19,5 C 40 % 1015,2 hPa 0,0 l/m 0,0 km/h (0 Bft) SO 136 0 min 0 W/m 5,5 C 19,5 C 1,6 km/h (1 Bft)
12.06.2024 17:55 19,5 C 19,5 C 42 % 1015,2 hPa 0,0 l/m 0,0 km/h (0 Bft) O-SO 111 0 min 0 W/m 6,2 C 19,5 C 1,6 km/h (1 Bft)
12.06.2024 17:51 19,6 C 19,6 C 40 % 1015,2 hPa 0,0 l/m 0,7 km/h (0 Bft) S-SO 162 0 min 0 W/m 5,6 C 19,6 C 3,2 km/h (1 Bft)
12.06.2024 17:46 19,6 C 19,4 C 41 % 1015,2 hPa 0,0 l/m 0,0 km/h (0 Bft) S-SW 198 0 min 0 W/m 6,0 C 19,6 C 0,0 km/h (0 Bft)
12.06.2024 17:40 19,5 C 19,5 C 40 % 1015,2 hPa 0,0 l/m 0,0 km/h (0 Bft) S-SW 201 0 min 0 W/m 5,5 C 19,5 C 1,6 km/h (1 Bft)
12.06.2024 17:35 19,8 C 19,7 C 39 % 1015,2 hPa 0,0 l/m 0,0 km/h (0 Bft) O-SO 115 0 min 0 W/m 5,4 C 19,8 C 0,0 km/h (0 Bft)
12.06.2024 17:30 19,9 C 19,9 C 39 % 1015,2 hPa 0,0 l/m 0,0 km/h (0 Bft) S-SO 151 0 min 0 W/m 5,5 C 19,9 C 0,0 km/h (0 Bft)
12.06.2024 17:28 19,9 C 19,7 C 39 % 1015,2 hPa 0,0 l/m 0,1 km/h (0 Bft) O-SO 113 0 min 0 W/m 5,5 C 19,9 C 3,2 km/h (1 Bft)
12.06.2024 17:20 19,7 C 19,5 C 41 % 1015,3 hPa 0,0 l/m 0,1 km/h (0 Bft) S-SO 155 0 min 0 W/m 6,1 C 19,7 C 3,2 km/h (1 Bft)
12.06.2024 17:15 19,5 C 19,4 C 40 % 1015,2 hPa 0,0 l/m 0,0 km/h (0 Bft) S 188 0 min 0 W/m 5,5 C 19,5 C 0,0 km/h (0 Bft)
12.06.2024 17:10 19,5 C 19,4 C 40 % 1015,4 hPa 0,0 l/m 0,0 km/h (0 Bft) SO 142 0 min 0 W/m 5,5 C 19,5 C 0,0 km/h (0 Bft)
12.06.2024 17:08 19,4 C 19,4 C 40 % 1015,3 hPa 0,0 l/m 0,0 km/h (0 Bft) SO 143 0 min 0 W/m 5,5 C 19,4 C 1,6 km/h (1 Bft)
12.06.2024 17:00 19,6 C 19,5 C 41 % 1015,4 hPa 0,0 l/m 0,0 km/h (0 Bft) SO 142 0 min 0 W/m 6,0 C 19,6 C 0,0 km/h (0 Bft)
12.06.2024 16:55 19,5 C 19,3 C 40 % 1015,5 hPa 0,0 l/m 0,1 km/h (0 Bft) SO 143 0 min 0 W/m 5,5 C 19,5 C 3,2 km/h (1 Bft)
12.06.2024 16:50 19,3 C 19,2 C 40 % 1015,4 hPa 0,0 l/m 0,7 km/h (0 Bft) SO 130 0 min 0 W/m 5,4 C 19,3 C 3,2 km/h (1 Bft)
12.06.2024 16:48 19,2 C 19,2 C 42 % 1015,4 hPa 0,0 l/m 0,0 km/h (0 Bft) O-SO 121 0 min 0 W/m 6,0 C 19,2 C 1,6 km/h (1 Bft)
12.06.2024 16:40 19,5 C 19,5 C 40 % 1015,5 hPa 0,0 l/m 0,2 km/h (0 Bft) W-NW 296 0 min 0 W/m 5,5 C 19,5 C 3,2 km/h (1 Bft)
12.06.2024 16:35 19,7 C 19,6 C 39 % 1015,6 hPa 0,0 l/m 0,7 km/h (0 Bft) SO 134 0 min 0 W/m 5,4 C 19,7 C 4,8 km/h (1 Bft)
12.06.2024 16:30 19,7 C 19,7 C 39 % 1015,5 hPa 0,0 l/m 2,0 km/h (1 Bft) S-SW 193 0 min 0 W/m 5,4 C 19,7 C 3,2 km/h (1 Bft)
12.06.2024 16:28 19,7 C 19,7 C 41 % 1015,6 hPa 0,0 l/m 0,2 km/h (0 Bft) SO 125 0 min 0 W/m 6,1 C 19,7 C 1,6 km/h (1 Bft)
12.06.2024 16:20 19,8 C 19,8 C 40 % 1015,6 hPa 0,0 l/m 0,1 km/h (0 Bft) O-SO 103 0 min 0 W/m 5,8 C 19,8 C 1,6 km/h (1 Bft)
12.06.2024 16:15 19,9 C 19,8 C 41 % 1015,6 hPa 0,0 l/m 0,9 km/h (0 Bft) SO 145 0 min 0 W/m 6,3 C 19,9 C 6,4 km/h (2 Bft)
12.06.2024 16:10 19,8 C 19,8 C 42 % 1015,6 hPa 0,0 l/m 0,3 km/h (0 Bft) W-NW 296 0 min 0 W/m 6,5 C 19,8 C 4,8 km/h (1 Bft)
12.06.2024 16:06 19,9 C 19,7 C 40 % 1015,6 hPa 0,0 l/m 0,8 km/h (0 Bft) SW 215 0 min 0 W/m 5,9 C 19,9 C 3,2 km/h (1 Bft)
12.06.2024 16:02 19,7 C 19,7 C 41 % 1015,7 hPa 0,0 l/m 0,8 km/h (0 Bft) S-SO 167 0 min 0 W/m 6,1 C 19,7 C 6,4 km/h (2 Bft)
12.06.2024 15:55 19,7 C 19,7 C 41 % 1015,7 hPa 0,0 l/m 1,2 km/h (1 Bft) SO 134 0 min 0 W/m 6,1 C 19,7 C 14,5 km/h (3 Bft)
12.06.2024 15:50 19,7 C 19,6 C 42 % 1015,8 hPa 0,0 l/m 0,7 km/h (0 Bft) S 183 0 min 0 W/m 6,4 C 19,7 C 9,7 km/h (2 Bft)
12.06.2024 15:45 19,7 C 19,7 C 41 % 1015,8 hPa 0,0 l/m 0,0 km/h (0 Bft) O-SO 123 0 min 0 W/m 6,1 C 19,7 C 0,0 km/h (0 Bft)
12.06.2024 15:43 19,7 C 19,7 C 42 % 1015,8 hPa 0,0 l/m 0,8 km/h (0 Bft) O-SO 112 0 min 0 W/m 6,4 C 19,7 C 3,2 km/h (1 Bft)
12.06.2024 15:35 19,7 C 19,7 C 44 % 1015,7 hPa 0,0 l/m 1,5 km/h (1 Bft) S-SO 167 0 min 0 W/m 7,1 C 19,7 C 4,8 km/h (1 Bft)
12.06.2024 15:30 19,8 C 19,6 C 44 % 1015,8 hPa 0,0 l/m 0,9 km/h (0 Bft) NO 55 0 min 0 W/m 7,2 C 19,8 C 4,8 km/h (1 Bft)
12.06.2024 15:25 19,7 C 19,7 C 45 % 1015,9 hPa 0,0 l/m 0,4 km/h (0 Bft) S-SO 157 0 min 0 W/m 7,4 C 19,7 C 3,2 km/h (1 Bft)
12.06.2024 15:23 19,8 C 19,8 C 43 % 1015,9 hPa 0,0 l/m 0,4 km/h (0 Bft) S-SO 155 0 min 0 W/m 6,9 C 19,8 C 3,2 km/h (1 Bft)
12.06.2024 15:15 19,8 C 19,8 C 43 % 1016,0 hPa 0,0 l/m 0,6 km/h (0 Bft) O-SO 119 0 min 0 W/m 6,9 C 19,8 C 4,8 km/h (1 Bft)
12.06.2024 15:10 19,8 C 19,7 C 44 % 1015,9 hPa 0,0 l/m 1,5 km/h (1 Bft) S-SW 203 0 min 0 W/m 7,2 C 19,8 C 4,8 km/h (1 Bft)
12.06.2024 15:05 19,7 C 19,7 C 42 % 1016,0 hPa 0,0 l/m 0,1 km/h (0 Bft) O-SO 121 0 min 0 W/m 6,4 C 19,7 C 1,6 km/h (1 Bft)
12.06.2024 15:03 19,8 C 19,7 C 41 % 1016,0 hPa 0,0 l/m 0,4 km/h (0 Bft) S 170 0 min 0 W/m 6,2 C 19,8 C 3,2 km/h (1 Bft)
12.06.2024 14:55 19,8 C 19,7 C 41 % 1016,1 hPa 0,0 l/m 0,7 km/h (0 Bft) S-SO 159 0 min 0 W/m 6,2 C 19,8 C 6,4 km/h (2 Bft)
12.06.2024 14:50 19,8 C 19,8 C 39 % 1016,1 hPa 0,0 l/m 1,8 km/h (1 Bft) SO 129 0 min 0 W/m 5,4 C 19,8 C 4,8 km/h (1 Bft)
12.06.2024 14:45 20,0 C 20,0 C 40 % 1016,1 hPa 0,0 l/m 2,1 km/h (1 Bft) SO 127 0 min 0 W/m 6,0 C 20,0 C 3,2 km/h (1 Bft)
12.06.2024 14:43 20,1 C 19,7 C 41 % 1016,2 hPa 0,0 l/m 0,9 km/h (0 Bft) S 180 0 min 0 W/m 6,4 C 20,1 C 8,0 km/h (2 Bft)
12.06.2024 14:35 19,7 C 19,6 C 42 % 1016,2 hPa 0,0 l/m 0,3 km/h (0 Bft) O-SO 106 0 min 0 W/m 6,4 C 19,7 C 3,2 km/h (1 Bft)
12.06.2024 14:30 19,8 C 19,7 C 39 % 1016,2 hPa 0,0 l/m 0,4 km/h (0 Bft) W-SW 250 0 min 0 W/m 5,4 C 19,8 C 6,4 km/h (2 Bft)
12.06.2024 14:25 19,8 C 19,8 C 41 % 1016,2 hPa 0,0 l/m 0,2 km/h (0 Bft) S-SW 207 0 min 0 W/m 6,2 C 19,8 C 4,8 km/h (1 Bft)
12.06.2024 14:20 20,1 C 20,1 C 39 % 1016,2 hPa 0,0 l/m 1,2 km/h (1 Bft) S-SO 153 0 min 0 W/m 5,7 C 20,1 C 6,4 km/h (2 Bft)
12.06.2024 14:18 20,2 C 20,1 C 39 % 1016,4 hPa 0,0 l/m 0,2 km/h (0 Bft) O 85 0 min 0 W/m 5,8 C 20,2 C 3,2 km/h (1 Bft)
12.06.2024 14:10 20,1 C 20,1 C 38 % 1016,3 hPa 0,0 l/m 0,5 km/h (0 Bft) SO 145 0 min 0 W/m 5,3 C 20,1 C 3,2 km/h (1 Bft)
12.06.2024 14:05 20,1 C 20,0 C 37 % 1016,3 hPa 0,0 l/m 1,4 km/h (1 Bft) S 169 0 min 0 W/m 5,0 C 20,1 C 16,1 km/h (3 Bft)
12.06.2024 14:00 20,0 C 20,0 C 39 % 1016,4 hPa 0,0 l/m 0,7 km/h (0 Bft) O 90 0 min 0 W/m 5,6 C 20,0 C 3,2 km/h (1 Bft)
12.06.2024 13:58 20,1 C 19,9 C 41 % 1016,4 hPa 0,0 l/m 1,1 km/h (1 Bft) SO 126 0 min 0 W/m 6,4 C 20,1 C 6,4 km/h (2 Bft)
12.06.2024 13:50 19,9 C 19,8 C 41 % 1016,4 hPa 0,0 l/m 0,7 km/h (0 Bft) S-SO 160 0 min 0 W/m 6,3 C 19,9 C 4,8 km/h (1 Bft)
12.06.2024 13:45 20,0 C 20,0 C 39 % 1016,4 hPa 0,0 l/m 0,8 km/h (0 Bft) S-SO 163 0 min 0 W/m 5,6 C 20,0 C 6,4 km/h (2 Bft)
12.06.2024 13:40 20,1 C 20,1 C 40 % 1016,4 hPa 0,0 l/m 0,1 km/h (0 Bft) SO 127 0 min 0 W/m 6,1 C 20,1 C 1,6 km/h (1 Bft)
12.06.2024 13:38 20,1 C 20,0 C 40 % 1016,4 hPa 0,0 l/m 0,9 km/h (0 Bft) SO 142 0 min 0 W/m 6,1 C 20,1 C 6,4 km/h (2 Bft)
12.06.2024 13:30 20,2 C 20,1 C 43 % 1016,3 hPa 0,0 l/m 1,2 km/h (1 Bft) SO 140 0 min 0 W/m 7,2 C 20,2 C 6,4 km/h (2 Bft)
12.06.2024 13:25 20,4 C 20,4 C 42 % 1016,4 hPa 0,0 l/m 1,5 km/h (1 Bft) S-SO 154 0 min 0 W/m 7,1 C 20,4 C 8,0 km/h (2 Bft)
12.06.2024 13:20 20,6 C 20,4 C 41 % 1016,4 hPa 0,0 l/m 0,9 km/h (0 Bft) S-SW 195 0 min 0 W/m 6,9 C 20,6 C 3,2 km/h (1 Bft)
12.06.2024 13:18 20,4 C 20,0 C 41 % 1016,4 hPa 0,0 l/m 0,1 km/h (0 Bft) S-SO 166 0 min 0 W/m 6,7 C 20,4 C 1,6 km/h (1 Bft)
12.06.2024 13:10 20,0 C 20,0 C 41 % 1016,6 hPa 0,0 l/m 0,2 km/h (0 Bft) O 101 0 min 0 W/m 6,3 C 20,0 C 4,8 km/h (1 Bft)
12.06.2024 13:05 20,2 C 19,6 C 39 % 1016,6 hPa 0,0 l/m 0,0 km/h (0 Bft) S 181 0 min 0 W/m 5,8 C 20,2 C 1,6 km/h (1 Bft)
12.06.2024 13:00 19,6 C 19,6 C 41 % 1016,6 hPa 0,0 l/m 0,4 km/h (0 Bft) O-SO 112 0 min 0 W/m 6,0 C 19,6 C 3,2 km/h (1 Bft)
12.06.2024 12:55 19,9 C 19,9 C 39 % 1016,6 hPa 0,0 l/m 0,0 km/h (0 Bft) S-SW 196 0 min 0 W/m 5,5 C 19,9 C 0,0 km/h (0 Bft)
12.06.2024 12:53 19,9 C 19,9 C 39 % 1016,6 hPa 0,0 l/m 0,4 km/h (0 Bft) S 189 0 min 0 W/m 5,5 C 19,9 C 3,2 km/h (1 Bft)
12.06.2024 12:45 20,1 C 19,8 C 40 % 1016,6 hPa 0,0 l/m 0,6 km/h (0 Bft) S-SW 210 0 min 0 W/m 6,1 C 20,1 C 4,8 km/h (1 Bft)
12.06.2024 12:40 19,9 C 19,9 C 38 % 1016,6 hPa 0,0 l/m 0,5 km/h (0 Bft) O-SO 123 0 min 0 W/m 5,2 C 19,9 C 8,0 km/h (2 Bft)
12.06.2024 12:35 19,9 C 19,9 C 38 % 1016,7 hPa 0,0 l/m 0,0 km/h (0 Bft) O-SO 117 0 min 0 W/m 5,2 C 19,9 C 0,0 km/h (0 Bft)
12.06.2024 12:33 19,9 C 19,7 C 42 % 1016,7 hPa 0,0 l/m 0,0 km/h (0 Bft) SW 219 0 min 0 W/m 6,6 C 19,9 C 0,0 km/h (0 Bft)
12.06.2024 12:25 19,7 C 19,4 C 44 % 1016,7 hPa 0,0 l/m 0,0 km/h (0 Bft) NO 40 0 min 0 W/m 7,1 C 19,7 C 3,2 km/h (1 Bft)
12.06.2024 12:20 19,4 C 19,4 C 43 % 1016,8 hPa 0,0 l/m 0,2 km/h (0 Bft) O-NO 57 0 min 0 W/m 6,5 C 19,4 C 3,2 km/h (1 Bft)
12.06.2024 12:15 19,6 C 19,6 C 42 % 1016,8 hPa 0,0 l/m 0,9 km/h (0 Bft) SO 124 0 min 0 W/m 6,3 C 19,6 C 3,2 km/h (1 Bft)
12.06.2024 12:13 19,7 C 19,1 C 42 % 1016,8 hPa 0,0 l/m 0,7 km/h (0 Bft) SO 135 0 min 0 W/m 6,4 C 19,7 C 6,4 km/h (2 Bft)
12.06.2024 12:05 19,1 C 19,1 C 47 % 1016,7 hPa 0,0 l/m 0,6 km/h (0 Bft) W-NW 298 0 min 0 W/m 7,5 C 19,1 C 3,2 km/h (1 Bft)
12.06.2024 12:00 19,2 C 19,2 C 44 % 1016,7 hPa 0,0 l/m 0,2 km/h (0 Bft) S 171 0 min 0 W/m 6,7 C 19,2 C 3,2 km/h (1 Bft)
12.06.2024 11:55 19,4 C 19,2 C 44 % 1016,8 hPa 0,0 l/m 0,0 km/h (0 Bft) S-SO 155 0 min 0 W/m 6,8 C 19,4 C 0,0 km/h (0 Bft)
12.06.2024 11:53 19,2 C 18,7 C 45 % 1016,8 hPa 0,0 l/m 0,2 km/h (0 Bft) S-SO 155 0 min 0 W/m 7,0 C 19,2 C 3,2 km/h (1 Bft)
12.06.2024 11:45 18,7 C 18,6 C 46 % 1016,9 hPa 0,0 l/m 0,1 km/h (0 Bft) N 355 0 min 0 W/m 6,8 C 18,7 C 1,6 km/h (1 Bft)
12.06.2024 11:40 18,7 C 18,3 C 46 % 1016,8 hPa 0,0 l/m 0,1 km/h (0 Bft) SO 146 0 min 0 W/m 6,8 C 18,7 C 1,6 km/h (1 Bft)
12.06.2024 11:35 18,4 C 18,3 C 45 % 1016,9 hPa 0,0 l/m 0,0 km/h (0 Bft) SO 134 0 min 0 W/m 6,3 C 18,4 C 1,6 km/h (1 Bft)
12.06.2024 11:31 18,3 C 18,1 C 47 % 1016,8 hPa 0,0 l/m 0,0 km/h (0 Bft) N 355 0 min 0 W/m 6,8 C 18,3 C 0,0 km/h (0 Bft)
12.06.2024 11:27 18,1 C 18,0 C 47 % 1016,9 hPa 0,0 l/m 0,1 km/h (0 Bft) O-SO 121 0 min 0 W/m 6,6 C 18,1 C 1,6 km/h (1 Bft)
12.06.2024 11:20 18,0 C 17,8 C 52 % 1016,9 hPa 0,0 l/m 0,2 km/h (0 Bft) O-SO 117 0 min 0 W/m 8,0 C 18,0 C 3,2 km/h (1 Bft)
12.06.2024 11:15 17,8 C 17,7 C 50 % 1016,9 hPa 0,0 l/m 0,7 km/h (0 Bft) SO 130 0 min 0 W/m 7,2 C 17,8 C 4,8 km/h (1 Bft)
12.06.2024 11:10 17,7 C 17,6 C 54 % 1017,0 hPa 0,0 l/m 0,1 km/h (0 Bft) S 191 0 min 0 W/m 8,3 C 17,7 C 1,6 km/h (1 Bft)
12.06.2024 11:08 17,6 C 17,4 C 55 % 1017,0 hPa 0,0 l/m 0,2 km/h (0 Bft) S-SO 156 0 min 0 W/m 8,5 C 17,6 C 1,6 km/h (1 Bft)
12.06.2024 11:00 17,4 C 17,2 C 57 % 1016,9 hPa 0,0 l/m 0,2 km/h (0 Bft) SO 146 0 min 0 W/m 8,8 C 17,4 C 3,2 km/h (1 Bft)
12.06.2024 10:55 17,3 C 17,1 C 57 % 1017,0 hPa 0,0 l/m 0,3 km/h (0 Bft) S-SW 207 0 min 0 W/m 8,7 C 17,3 C 3,2 km/h (1 Bft)
12.06.2024 10:50 17,1 C 17,1 C 59 % 1017,0 hPa 0,0 l/m 0,0 km/h (0 Bft) O-SO 111 0 min 0 W/m 9,0 C 17,1 C 0,0 km/h (0 Bft)
12.06.2024 10:48 17,1 C 16,8 C 58 % 1017,0 hPa 0,0 l/m 0,5 km/h (0 Bft) O 96 0 min 0 W/m 8,8 C 17,1 C 3,2 km/h (1 Bft)
12.06.2024 10:40 16,8 C 16,7 C 57 % 1017,0 hPa 0,0 l/m 0,1 km/h (0 Bft) SO 143 0 min 0 W/m 8,2 C 16,8 C 3,2 km/h (1 Bft)
12.06.2024 10:35 16,7 C 16,5 C 60 % 1017,0 hPa 0,0 l/m 0,6 km/h (0 Bft) SO 136 0 min 0 W/m 8,9 C 16,7 C 4,8 km/h (1 Bft)
12.06.2024 10:30 16,5 C 16,4 C 62 % 1017,1 hPa 0,0 l/m 0,9 km/h (0 Bft) SO 138 0 min 0 W/m 9,2 C 16,5 C 3,2 km/h (1 Bft)
12.06.2024 10:28 16,4 C 16,2 C 63 % 1017,0 hPa 0,0 l/m 0,5 km/h (0 Bft) SO 138 0 min 0 W/m 9,3 C 16,4 C 3,2 km/h (1 Bft)
12.06.2024 10:20 16,2 C 16,1 C 65 % 1017,1 hPa 0,0 l/m 1,1 km/h (1 Bft) S 171 0 min 0 W/m 9,6 C 16,2 C 4,8 km/h (1 Bft)
12.06.2024 10:15 16,1 C 15,9 C 64 % 1017,1 hPa 0,0 l/m 0,0 km/h (0 Bft) S-SO 164 0 min 0 W/m 9,3 C 16,1 C 1,6 km/h (1 Bft)
12.06.2024 10:10 15,9 C 15,8 C 66 % 1017,0 hPa 0,0 l/m 0,3 km/h (0 Bft) O-NO 59 0 min 0 W/m 9,6 C 15,9 C 3,2 km/h (1 Bft)
12.06.2024 10:07 15,8 C 15,6 C 66 % 1017,0 hPa 0,0 l/m 0,0 km/h (0 Bft) NO 49 0 min 0 W/m 9,5 C 15,8 C 0,0 km/h (0 Bft)
12.06.2024 10:00 15,6 C 15,5 C 66 % 1017,0 hPa 0,0 l/m 0,0 km/h (0 Bft) O-NO 57 0 min 0 W/m 9,3 C 15,6 C 0,0 km/h (0 Bft)
12.06.2024 09:55 15,5 C 15,4 C 66 % 1017,1 hPa 0,0 l/m 0,0 km/h (0 Bft) SO 144 0 min 0 W/m 9,2 C 15,5 C 0,0 km/h (0 Bft)
12.06.2024 09:50 15,4 C 15,2 C 65 % 1017,1 hPa 0,0 l/m 0,0 km/h (0 Bft) NW 315 0 min 0 W/m 8,9 C 15,4 C 0,0 km/h (0 Bft)
12.06.2024 09:45 15,2 C 15,1 C 67 % 1017,1 hPa 0,0 l/m 0,2 km/h (0 Bft) O-SO 111 0 min 0 W/m 9,1 C 15,2 C 1,6 km/h (1 Bft)
12.06.2024 09:43 15,1 C 14,7 C 67 % 1017,1 hPa 0,0 l/m 0,0 km/h (0 Bft) O-SO 119 0 min 0 W/m 9,0 C 15,1 C 1,6 km/h (1 Bft)
12.06.2024 09:35 14,7 C 14,5 C 69 % 1017,1 hPa 0,0 l/m 0,0 km/h (0 Bft) SW 218 0 min 0 W/m 9,1 C 14,7 C 0,0 km/h (0 Bft)
12.06.2024 09:30 14,5 C 14,2 C 70 % 1017,1 hPa 0,0 l/m 0,1 km/h (0 Bft) S-SO 162 0 min 0 W/m 9,1 C 14,5 C 3,2 km/h (1 Bft)
12.06.2024 09:25 14,2 C 14,1 C 72 % 1017,0 hPa 0,0 l/m 0,0 km/h (0 Bft) O-SO 111 0 min 0 W/m 9,2 C 14,2 C 0,0 km/h (0 Bft)
12.06.2024 09:23 14,1 C 13,6 C 73 % 1017,1 hPa 0,0 l/m 0,0 km/h (0 Bft) SO 138 0 min 0 W/m 9,3 C 14,1 C 0,0 km/h (0 Bft)
12.06.2024 09:15 13,6 C 13,2 C 75 % 1017,2 hPa 0,0 l/m 0,0 km/h (0 Bft) O 89 0 min 0 W/m 9,3 C 13,6 C 0,0 km/h (0 Bft)
12.06.2024 09:10 13,2 C 12,9 C 77 % 1017,2 hPa 0,0 l/m 0,0 km/h (0 Bft) O-NO 62 0 min 0 W/m 9,3 C 13,2 C 1,6 km/h (1 Bft)
12.06.2024 09:05 12,9 C 12,8 C 77 % 1017,2 hPa 0,0 l/m 0,0 km/h (0 Bft) N-NO 31 0 min 0 W/m 9,0 C 12,9 C 0,0 km/h (0 Bft)
12.06.2024 09:03 12,8 C 12,1 C 79 % 1017,2 hPa 0,0 l/m 0,0 km/h (0 Bft) N-NO 30 0 min 0 W/m 9,2 C 12,8 C 0,0 km/h (0 Bft)
12.06.2024 08:55 12,1 C 11,8 C 81 % 1017,2 hPa 0,0 l/m 0,0 km/h (0 Bft) N-NW 336 0 min 0 W/m 8,9 C 12,1 C 0,0 km/h (0 Bft)
12.06.2024 08:50 11,8 C 11,4 C 82 % 1017,2 hPa 0,0 l/m 0,0 km/h (0 Bft) S 184 0 min 0 W/m 8,8 C 11,8 C 0,0 km/h (0 Bft)
12.06.2024 08:45 11,4 C 11,4 C 83 % 1017,3 hPa 0,0 l/m 0,0 km/h (0 Bft) O 99 0 min 0 W/m 8,6 C 11,4 C 0,0 km/h (0 Bft)
12.06.2024 08:43 11,4 C 10,8 C 83 % 1017,2 hPa 0,0 l/m 0,0 km/h (0 Bft) O-SO 111 0 min 0 W/m 8,6 C 11,4 C 0,0 km/h (0 Bft)
12.06.2024 08:35 10,8 C 10,4 C 85 % 1017,2 hPa 0,0 l/m 0,0 km/h (0 Bft) SO 132 0 min 0 W/m 8,4 C 10,8 C 1,6 km/h (1 Bft)
12.06.2024 08:30 10,4 C 10,1 C 86 % 1017,1 hPa 0,0 l/m 0,1 km/h (0 Bft) O-SO 119 0 min 0 W/m 8,2 C 10,4 C 1,6 km/h (1 Bft)
12.06.2024 08:25 10,1 C 9,8 C 86 % 1017,1 hPa 0,0 l/m 0,0 km/h (0 Bft) N 355 0 min 0 W/m 7,9 C 10,1 C 0,0 km/h (0 Bft)
12.06.2024 08:20 9,8 C 9,5 C 87 % 1017,1 hPa 0,0 l/m 0,0 km/h (0 Bft) NO 40 0 min 0 W/m 7,7 C 9,8 C 0,0 km/h (0 Bft)
12.06.2024 08:18 9,5 C 9,3 C 87 % 1017,1 hPa 0,0 l/m 0,0 km/h (0 Bft) N-NO 18 0 min 0 W/m 7,4 C 9,5 C 0,0 km/h (0 Bft)
12.06.2024 08:10 9,3 C 9,2 C 87 % 1017,1 hPa 0,0 l/m 0,0 km/h (0 Bft) N-NO 15 0 min 0 W/m 7,2 C 9,3 C 0,0 km/h (0 Bft)
12.06.2024 08:05 9,2 C 9,0 C 87 % 1017,1 hPa 0,0 l/m 0,0 km/h (0 Bft) N-NO 15 0 min 0 W/m 7,2 C 9,2 C 0,0 km/h (0 Bft)
12.06.2024 08:00 9,0 C 8,9 C 88 % 1017,2 hPa 0,0 l/m 0,0 km/h (0 Bft) N 5 0 min 0 W/m 7,1 C 9,0 C 0,0 km/h (0 Bft)
12.06.2024 07:58 8,9 C 8,7 C 87 % 1017,2 hPa 0,0 l/m 0,0 km/h (0 Bft) N 9 0 min 0 W/m 6,9 C 8,9 C 0,0 km/h (0 Bft)
12.06.2024 07:50 8,7 C 8,6 C 87 % 1017,2 hPa 0,0 l/m 0,0 km/h (0 Bft) NO 35 0 min 0 W/m 6,7 C 8,7 C 0,0 km/h (0 Bft)
12.06.2024 07:45 8,6 C 8,4 C 87 % 1017,2 hPa 0,0 l/m 0,0 km/h (0 Bft) NO 34 0 min 0 W/m 6,6 C 8,6 C 0,0 km/h (0 Bft)
12.06.2024 07:40 8,4 C 8,4 C 87 % 1017,2 hPa 0,0 l/m 0,0 km/h (0 Bft) NO 34 0 min 0 W/m 6,4 C 8,4 C 0,0 km/h (0 Bft)
12.06.2024 07:38 8,4 C 8,3 C 87 % 1017,2 hPa 0,0 l/m 0,0 km/h (0 Bft) NO 34 0 min 0 W/m 6,4 C 8,4 C 0,0 km/h (0 Bft)
12.06.2024 07:30 8,3 C 8,2 C 86 % 1017,1 hPa 0,0 l/m 0,0 km/h (0 Bft) W 263 0 min 0 W/m 6,1 C 8,3 C 0,0 km/h (0 Bft)
12.06.2024 07:25 8,2 C 8,1 C 86 % 1017,1 hPa 0,0 l/m 0,0 km/h (0 Bft) W-SW 246 0 min 0 W/m 6,0 C 8,2 C 0,0 km/h (0 Bft)
12.06.2024 07:20 8,2 C 8,1 C 86 % 1017,1 hPa 0,0 l/m 0,0 km/h (0 Bft) W-SW 244 0 min 0 W/m 6,0 C 8,2 C 0,0 km/h (0 Bft)
12.06.2024 07:15 8,1 C 8,1 C 85 % 1017,1 hPa 0,0 l/m 0,0 km/h (0 Bft) W-SW 244 0 min 0 W/m 5,7 C 8,1 C 0,0 km/h (0 Bft)
12.06.2024 07:10 8,1 C 8,0 C 85 % 1017,0 hPa 0,0 l/m 0,0 km/h (0 Bft) W-SW 244 0 min 0 W/m 5,7 C 8,1 C 0,0 km/h (0 Bft)
12.06.2024 07:05 8,0 C 7,9 C 84 % 1017,0 hPa 0,0 l/m 0,0 km/h (0 Bft) W-SW 244 0 min 0 W/m 5,5 C 8,0 C 0,0 km/h (0 Bft)
12.06.2024 07:00 8,0 C 7,9 C 84 % 1016,9 hPa 0,0 l/m 0,0 km/h (0 Bft) W-SW 244 0 min 0 W/m 5,5 C 8,0 C 0,0 km/h (0 Bft)
12.06.2024 06:55 8,0 C 7,9 C 84 % 1017,0 hPa 0,0 l/m 0,0 km/h (0 Bft) W-SW 244 0 min 0 W/m 5,5 C 8,0 C 0,0 km/h (0 Bft)
12.06.2024 06:50 7,9 C 7,9 C 84 % 1016,9 hPa 0,0 l/m 0,0 km/h (0 Bft) W-SW 244 0 min 0 W/m 5,4 C 7,9 C 0,0 km/h (0 Bft)
12.06.2024 06:45 8,0 C 7,9 C 84 % 1016,9 hPa 0,0 l/m 0,0 km/h (0 Bft) W-SW 244 0 min 0 W/m 5,5 C 8,0 C 0,0 km/h (0 Bft)
12.06.2024 06:40 7,9 C 7,9 C 84 % 1016,9 hPa 0,0 l/m 0,0 km/h (0 Bft) W-SW 244 0 min 0 W/m 5,4 C 7,9 C 0,0 km/h (0 Bft)
12.06.2024 06:35 7,9 C 7,9 C 84 % 1016,9 hPa 0,0 l/m 0,0 km/h (0 Bft) W-SW 244 0 min 0 W/m 5,4 C 7,9 C 0,0 km/h (0 Bft)
12.06.2024 06:30 8,0 C 7,9 C 84 % 1016,8 hPa 0,0 l/m 0,0 km/h (0 Bft) W-SW 244 0 min 0 W/m 5,5 C 8,0 C 0,0 km/h (0 Bft)
12.06.2024 06:25 8,0 C 8,0 C 84 % 1016,9 hPa 0,0 l/m 0,0 km/h (0 Bft) W-SW 244 0 min 0 W/m 5,5 C 8,0 C 0,0 km/h (0 Bft)
12.06.2024 06:20 8,0 C 8,0 C 84 % 1016,8 hPa 0,0 l/m 0,0 km/h (0 Bft) W-SW 244 0 min 0 W/m 5,5 C 8,0 C 0,0 km/h (0 Bft)
12.06.2024 06:15 8,0 C 8,0 C 84 % 1016,8 hPa 0,0 l/m 0,0 km/h (0 Bft) W-SW 244 0 min 0 W/m 5,5 C 8,0 C 0,0 km/h (0 Bft)
12.06.2024 06:10 8,0 C 8,0 C 84 % 1016,8 hPa 0,0 l/m 0,0 km/h (0 Bft) W-SW 244 0 min 0 W/m 5,5 C 8,0 C 0,0 km/h (0 Bft)
12.06.2024 06:05 8,0 C 8,0 C 84 % 1016,7 hPa 0,0 l/m 0,0 km/h (0 Bft) W-SW 244 0 min 0 W/m 5,5 C 8,0 C 0,0 km/h (0 Bft)
12.06.2024 06:00 8,1 C 8,0 C 84 % 1016,8 hPa 0,0 l/m 0,0 km/h (0 Bft) W-SW 244 0 min 0 W/m 5,6 C 8,1 C 0,0 km/h (0 Bft)
12.06.2024 05:55 8,0 C 8,0 C 83 % 1016,8 hPa 0,0 l/m 0,0 km/h (0 Bft) W-SW 244 0 min 0 W/m 5,3 C 8,0 C 0,0 km/h (0 Bft)
12.06.2024 05:50 8,1 C 8,0 C 83 % 1016,7 hPa 0,0 l/m 0,0 km/h (0 Bft) W-SW 244 0 min 0 W/m 5,4 C 8,1 C 0,0 km/h (0 Bft)
12.06.2024 05:45 8,1 C 8,1 C 83 % 1016,7 hPa 0,0 l/m 0,0 km/h (0 Bft) W-SW 244 0 min 0 W/m 5,4 C 8,1 C 0,0 km/h (0 Bft)
12.06.2024 05:40 8,1 C 8,1 C 83 % 1016,7 hPa 0,0 l/m 0,0 km/h (0 Bft) W-SW 244 0 min 0 W/m 5,4 C 8,1 C 0,0 km/h (0 Bft)
12.06.2024 05:35 8,1 C 8,1 C 83 % 1016,6 hPa 0,0 l/m 0,0 km/h (0 Bft) W-SW 244 0 min 0 W/m 5,4 C 8,1 C 0,0 km/h (0 Bft)
12.06.2024 05:30 8,2 C 8,2 C 83 % 1016,5 hPa 0,0 l/m 0,0 km/h (0 Bft) SW 229 0 min 0 W/m 5,5 C 8,2 C 0,0 km/h (0 Bft)
12.06.2024 05:25 8,2 C 8,2 C 83 % 1016,4 hPa 0,0 l/m 0,0 km/h (0 Bft) SW 229 0 min 0 W/m 5,5 C 8,2 C 0,0 km/h (0 Bft)
12.06.2024 05:20 8,2 C 8,2 C 82 % 1016,4 hPa 0,0 l/m 0,0 km/h (0 Bft) SW 229 0 min 0 W/m 5,3 C 8,2 C 0,0 km/h (0 Bft)
12.06.2024 05:15 8,3 C 8,3 C 82 % 1016,3 hPa 0,0 l/m 0,0 km/h (0 Bft) SW 236 0 min 0 W/m 5,4 C 8,3 C 0,0 km/h (0 Bft)
12.06.2024 05:10 8,3 C 8,3 C 82 % 1016,4 hPa 0,0 l/m 0,0 km/h (0 Bft) SW 225 0 min 0 W/m 5,4 C 8,3 C 0,0 km/h (0 Bft)
12.06.2024 05:05 8,3 C 8,3 C 82 % 1016,4 hPa 0,0 l/m 0,0 km/h (0 Bft) SW 225 0 min 0 W/m 5,4 C 8,3 C 0,0 km/h (0 Bft)
12.06.2024 05:00 8,4 C 8,3 C 82 % 1016,4 hPa 0,0 l/m 0,0 km/h (0 Bft) SW 225 0 min 0 W/m 5,5 C 8,4 C 0,0 km/h (0 Bft)
12.06.2024 04:55 8,4 C 8,4 C 82 % 1016,4 hPa 0,0 l/m 0,0 km/h (0 Bft) SW 225 0 min 0 W/m 5,5 C 8,4 C 0,0 km/h (0 Bft)
12.06.2024 04:50 8,4 C 8,4 C 81 % 1016,4 hPa 0,0 l/m 0,0 km/h (0 Bft) SW 225 0 min 0 W/m 5,3 C 8,4 C 0,0 km/h (0 Bft)
12.06.2024 04:45 8,4 C 8,4 C 81 % 1016,5 hPa 0,0 l/m 0,0 km/h (0 Bft) SW 225 0 min 0 W/m 5,3 C 8,4 C 0,0 km/h (0 Bft)
12.06.2024 04:40 8,5 C 8,5 C 81 % 1016,5 hPa 0,0 l/m 0,0 km/h (0 Bft) SW 225 0 min 0 W/m 5,4 C 8,5 C 0,0 km/h (0 Bft)
12.06.2024 04:35 8,5 C 8,5 C 81 % 1016,5 hPa 0,0 l/m 0,0 km/h (0 Bft) SW 225 0 min 0 W/m 5,4 C 8,5 C 0,0 km/h (0 Bft)
12.06.2024 04:30 8,5 C 8,5 C 81 % 1016,5 hPa 0,0 l/m 0,0 km/h (0 Bft) SW 225 0 min 0 W/m 5,4 C 8,5 C 0,0 km/h (0 Bft)
12.06.2024 04:25 8,6 C 8,6 C 81 % 1016,4 hPa 0,0 l/m 0,0 km/h (0 Bft) SW 225 0 min 0 W/m 5,5 C 8,6 C 0,0 km/h (0 Bft)
12.06.2024 04:20 8,6 C 8,6 C 81 % 1016,4 hPa 0,0 l/m 0,0 km/h (0 Bft) SW 225 0 min 0 W/m 5,5 C 8,6 C 0,0 km/h (0 Bft)
12.06.2024 04:15 8,7 C 8,7 C 80 % 1016,3 hPa 0,0 l/m 0,0 km/h (0 Bft) SW 225 0 min 0 W/m 5,4 C 8,7 C 0,0 km/h (0 Bft)
12.06.2024 04:10 8,8 C 8,7 C 80 % 1016,3 hPa 0,0 l/m 0,0 km/h (0 Bft) SW 225 0 min 0 W/m 5,5 C 8,8 C 0,0 km/h (0 Bft)
12.06.2024 04:05 8,8 C 8,8 C 80 % 1016,3 hPa 0,0 l/m 0,0 km/h (0 Bft) SW 225 0 min 0 W/m 5,5 C 8,8 C 0,0 km/h (0 Bft)
12.06.2024 04:00 8,8 C 8,8 C 80 % 1016,3 hPa 0,0 l/m 0,0 km/h (0 Bft) SW 227 0 min 0 W/m 5,5 C 8,8 C 0,0 km/h (0 Bft)
12.06.2024 03:55 8,9 C 8,9 C 79 % 1016,3 hPa 0,0 l/m 0,0 km/h (0 Bft) SW 227 0 min 0 W/m 5,5 C 8,9 C 0,0 km/h (0 Bft)
12.06.2024 03:50 8,9 C 8,9 C 79 % 1016,3 hPa 0,0 l/m 0,0 km/h (0 Bft) SW 227 0 min 0 W/m 5,5 C 8,9 C 0,0 km/h (0 Bft)
12.06.2024 03:45 9,0 C 9,0 C 79 % 1016,4 hPa 0,0 l/m 0,0 km/h (0 Bft) SW 225 0 min 0 W/m 5,6 C 9,0 C 0,0 km/h (0 Bft)
12.06.2024 03:40 9,1 C 9,0 C 79 % 1016,4 hPa 0,0 l/m 0,0 km/h (0 Bft) SW 225 0 min 0 W/m 5,7 C 9,1 C 0,0 km/h (0 Bft)
12.06.2024 03:35 9,1 C 9,1 C 79 % 1016,4 hPa 0,0 l/m 0,0 km/h (0 Bft) SW 226 0 min 0 W/m 5,7 C 9,1 C 0,0 km/h (0 Bft)
12.06.2024 03:30 9,1 C 9,1 C 78 % 1016,4 hPa 0,0 l/m 0,0 km/h (0 Bft) SW 226 0 min 0 W/m 5,5 C 9,1 C 0,0 km/h (0 Bft)
12.06.2024 03:25 9,2 C 9,2 C 78 % 1016,3 hPa 0,0 l/m 0,0 km/h (0 Bft) SW 227 0 min 0 W/m 5,6 C 9,2 C 0,0 km/h (0 Bft)
12.06.2024 03:20 9,2 C 9,2 C 78 % 1016,4 hPa 0,0 l/m 0,0 km/h (0 Bft) SW 227 0 min 0 W/m 5,6 C 9,2 C 0,0 km/h (0 Bft)
12.06.2024 03:15 9,3 C 9,2 C 78 % 1016,4 hPa 0,0 l/m 0,0 km/h (0 Bft) SW 227 0 min 0 W/m 5,7 C 9,3 C 0,0 km/h (0 Bft)
12.06.2024 03:10 9,3 C 9,2 C 77 % 1016,3 hPa 0,0 l/m 0,0 km/h (0 Bft) SW 227 0 min 0 W/m 5,5 C 9,3 C 0,0 km/h (0 Bft)
12.06.2024 03:05 9,3 C 9,3 C 77 % 1016,3 hPa 0,0 l/m 0,0 km/h (0 Bft) SW 227 0 min 0 W/m 5,5 C 9,3 C 0,0 km/h (0 Bft)
12.06.2024 03:00 9,3 C 9,3 C 77 % 1016,3 hPa 0,0 l/m 0,0 km/h (0 Bft) SW 227 0 min 0 W/m 5,5 C 9,3 C 0,0 km/h (0 Bft)
12.06.2024 02:55 9,4 C 9,4 C 77 % 1016,3 hPa 0,0 l/m 0,0 km/h (0 Bft) SW 227 0 min 0 W/m 5,6 C 9,4 C 0,0 km/h (0 Bft)
12.06.2024 02:50 9,4 C 9,4 C 77 % 1016,3 hPa 0,0 l/m 0,0 km/h (0 Bft) SW 227 0 min 0 W/m 5,6 C 9,4 C 0,0 km/h (0 Bft)
12.06.2024 02:45 9,5 C 9,5 C 76 % 1016,4 hPa 0,0 l/m 0,0 km/h (0 Bft) SW 227 0 min 0 W/m 5,5 C 9,5 C 0,0 km/h (0 Bft)
12.06.2024 02:40 9,6 C 9,6 C 76 % 1016,3 hPa 0,0 l/m 0,0 km/h (0 Bft) SW 227 0 min 0 W/m 5,6 C 9,6 C 0,0 km/h (0 Bft)
12.06.2024 02:35 9,7 C 9,6 C 76 % 1016,3 hPa 0,0 l/m 0,0 km/h (0 Bft) SW 229 0 min 0 W/m 5,7 C 9,7 C 0,0 km/h (0 Bft)
12.06.2024 02:30 9,7 C 9,7 C 75 % 1016,3 hPa 0,0 l/m 0,0 km/h (0 Bft) SW 229 0 min 0 W/m 5,5 C 9,7 C 0,0 km/h (0 Bft)
12.06.2024 02:25 9,8 C 9,8 C 75 % 1016,3 hPa 0,0 l/m 0,0 km/h (0 Bft) SW 229 0 min 0 W/m 5,6 C 9,8 C 0,0 km/h (0 Bft)
12.06.2024 02:20 9,8 C 9,8 C 75 % 1016,4 hPa 0,0 l/m 0,0 km/h (0 Bft) SW 229 0 min 0 W/m 5,6 C 9,8 C 0,0 km/h (0 Bft)
12.06.2024 02:15 9,9 C 9,9 C 75 % 1016,4 hPa 0,0 l/m 0,0 km/h (0 Bft) SW 230 0 min 0 W/m 5,7 C 9,9 C 0,0 km/h (0 Bft)
12.06.2024 02:10 10,1 C 10,1 C 74 % 1016,4 hPa 0,0 l/m 0,0 km/h (0 Bft) SW 230 0 min 0 W/m 5,7 C 10,1 C 0,0 km/h (0 Bft)
12.06.2024 02:05 10,1 C 10,1 C 74 % 1016,4 hPa 0,0 l/m 0,0 km/h (0 Bft) SW 231 0 min 0 W/m 5,7 C 10,1 C 0,0 km/h (0 Bft)
12.06.2024 02:00 10,2 C 10,2 C 74 % 1016,4 hPa 0,0 l/m 0,0 km/h (0 Bft) SW 225 0 min 0 W/m 5,8 C 10,2 C 0,0 km/h (0 Bft)
12.06.2024 01:55 10,3 C 10,3 C 73 % 1016,4 hPa 0,0 l/m 0,0 km/h (0 Bft) SW 223 0 min 0 W/m 5,7 C 10,3 C 0,0 km/h (0 Bft)
12.06.2024 01:50 10,4 C 10,4 C 72 % 1016,4 hPa 0,0 l/m 0,0 km/h (0 Bft) SW 227 0 min 0 W/m 5,6 C 10,4 C 0,0 km/h (0 Bft)
12.06.2024 01:45 10,6 C 10,6 C 72 % 1016,3 hPa 0,0 l/m 0,0 km/h (0 Bft) SW 227 0 min 0 W/m 5,8 C 10,6 C 0,0 km/h (0 Bft)
12.06.2024 01:40 10,7 C 10,7 C 72 % 1016,4 hPa 0,0 l/m 0,0 km/h (0 Bft) SW 226 0 min 0 W/m 5,9 C 10,7 C 0,0 km/h (0 Bft)
12.06.2024 01:35 10,8 C 10,8 C 71 % 1016,4 hPa 0,0 l/m 0,0 km/h (0 Bft) SW 226 0 min 0 W/m 5,8 C 10,8 C 0,0 km/h (0 Bft)
12.06.2024 01:30 10,9 C 10,9 C 71 % 1016,4 hPa 0,0 l/m 0,0 km/h (0 Bft) SW 226 0 min 0 W/m 5,9 C 10,9 C 0,0 km/h (0 Bft)
12.06.2024 01:25 11,1 C 11,0 C 71 % 1016,4 hPa 0,0 l/m 0,0 km/h (0 Bft) SW 225 0 min 0 W/m 6,0 C 11,1 C 0,0 km/h (0 Bft)
12.06.2024 01:20 11,2 C 11,2 C 70 % 1016,5 hPa 0,0 l/m 0,0 km/h (0 Bft) SW 219 0 min 0 W/m 5,9 C 11,2 C 0,0 km/h (0 Bft)
12.06.2024 01:15 11,3 C 11,2 C 69 % 1016,4 hPa 0,0 l/m 0,0 km/h (0 Bft) SW 216 0 min 0 W/m 5,8 C 11,3 C 0,0 km/h (0 Bft)
12.06.2024 01:10 11,3 C 11,3 C 69 % 1016,5 hPa 0,0 l/m 0,0 km/h (0 Bft) SW 216 0 min 0 W/m 5,8 C 11,3 C 0,0 km/h (0 Bft)
12.06.2024 01:05 11,4 C 11,4 C 69 % 1016,5 hPa 0,0 l/m 0,0 km/h (0 Bft) SW 216 0 min 0 W/m 5,9 C 11,4 C 0,0 km/h (0 Bft)
12.06.2024 01:00 11,5 C 11,5 C 68 % 1016,5 hPa 0,0 l/m 0,0 km/h (0 Bft) SW 216 0 min 0 W/m 5,8 C 11,5 C 0,0 km/h (0 Bft)
12.06.2024 00:55 11,6 C 11,6 C 68 % 1016,5 hPa 0,0 l/m 0,0 km/h (0 Bft) SW 216 0 min 0 W/m 5,9 C 11,6 C 0,0 km/h (0 Bft)
12.06.2024 00:50 11,7 C 11,7 C 68 % 1016,5 hPa 0,0 l/m 0,0 km/h (0 Bft) SW 217 0 min 0 W/m 6,0 C 11,7 C 0,0 km/h (0 Bft)
12.06.2024 00:45 11,9 C 11,9 C 67 % 1016,5 hPa 0,0 l/m 0,0 km/h (0 Bft) SW 221 0 min 0 W/m 6,0 C 11,9 C 0,0 km/h (0 Bft)
12.06.2024 00:40 12,1 C 12,1 C 67 % 1016,4 hPa 0,0 l/m 0,0 km/h (0 Bft) SW 215 0 min 0 W/m 6,2 C 12,1 C 0,0 km/h (0 Bft)
12.06.2024 00:35 12,2 C 12,2 C 67 % 1016,4 hPa 0,0 l/m 0,0 km/h (0 Bft) SW 215 0 min 0 W/m 6,3 C 12,2 C 0,0 km/h (0 Bft)
12.06.2024 00:30 12,4 C 12,3 C 66 % 1016,5 hPa 0,0 l/m 0,0 km/h (0 Bft) SW 214 0 min 0 W/m 6,2 C 12,4 C 0,0 km/h (0 Bft)
12.06.2024 00:25 12,4 C 12,4 C 66 % 1016,4 hPa 0,0 l/m 0,0 km/h (0 Bft) SW 215 0 min 0 W/m 6,2 C 12,4 C 0,0 km/h (0 Bft)
12.06.2024 00:20 12,6 C 12,6 C 66 % 1016,4 hPa 0,0 l/m 0,0 km/h (0 Bft) SW 233 0 min 0 W/m 6,4 C 12,6 C 0,0 km/h (0 Bft)
12.06.2024 00:15 12,7 C 12,7 C 65 % 1016,3 hPa 0,0 l/m 0,0 km/h (0 Bft) SW 216 0 min 0 W/m 6,3 C 12,7 C 0,0 km/h (0 Bft)
12.06.2024 00:10 12,9 C 12,9 C 65 % 1016,3 hPa 0,0 l/m 0,0 km/h (0 Bft) SW 218 0 min 0 W/m 6,5 C 12,9 C 0,0 km/h (0 Bft)
12.06.2024 00:05 13,1 C 13,1 C 65 % 1016,3 hPa 0,0 l/m 0,0 km/h (0 Bft) SW 221 0 min 0 W/m 6,7 C 13,1 C 0,0 km/h (0 Bft)
12.06.2024 00:00 13,2 C 13,2 C 65 % 1016,3 hPa 0,0 l/m 0,0 km/h (0 Bft) SW 221 0 min 0 W/m 6,8 C 13,2 C 0,0 km/h (0 Bft)
_ Min-Zeit 06:30 06:30 14:05 18:40 - 00:00 - - - - 14:05 06:35 00:00
Minimum _ 7,9 C 7,9 C 37 % 1014,9 hPa - 0,0 km/h (0 Bft) - - - - 5,0 C 7,9 C 0,0 km/h (0 Bft)
_ Max-Zeit 13:20 13:20 08:00 08:45 00:00 14:45 - - 00:00 00:00 10:20 13:20 14:05
Maximum _ 20,6 C 20,4 C 88 % 1017,3 hPa 0,0 l/m 2,1 km/h
SO (1 Bft)
- - 0 min 0 W/m 9,6 C 20,6 C 16,1 km/h
SO (3 Bft)
Durchschnitt _ 14,8 C 14,7 C 60 % 1016,3 hPa #0,0 l/m 0,2 km/h (0 Bft) SO - #0 min. 0 W/m 6,4 C 14,8 C 1,7 km/h (1 Bft)